Roade, United Kingdom
Current Conditions -  °F | °C
As of 8:20 AM on Tuesday 21 Oct 2014 (Local Time) from EGTC Reporting Station
Moderate Rain Moderate Rain  
Wind Chill: 57°   Ceiling: 1400
Heat Index: 57°   Visibility: 1.5mi
Dew Point: 55°   Wind: 18mph
Humidity: 94%   Direction: 240°WSW
Pressure: 29.47"   Gusts: 30mph
Location:  52.16°N, 0.9°W
Report Text: EGTC 210720Z 24016G26KT 2500 RA BKN014 14/13 Q0998
Loading
Personal Weather Stations






























Interactive Weather Map
Tropical Storm Tracking
New forecast layout! Learn more

10-Day Weather Forecast

Advertisements
Track Severe Weather on mobile